createdAt,value
2023-03-29T00:02:09.051Z,11.33
2023-03-29T00:04:35.612Z,11.20
2023-03-29T00:07:02.089Z,11.29
2023-03-29T00:09:42.658Z,11.41
2023-03-29T00:12:09.192Z,11.25
2023-03-29T00:15:23.665Z,11.14
2023-03-29T00:17:22.916Z,10.85
2023-03-29T00:19:49.315Z,10.82
2023-03-29T00:22:15.752Z,10.73
2023-03-29T00:24:42.132Z,10.96
2023-03-29T00:27:08.607Z,10.96
2023-03-29T00:29:36.085Z,10.76
2023-03-29T00:32:02.496Z,10.86
2023-03-29T00:34:28.953Z,11.12
2023-03-29T00:36:55.358Z,11.25
2023-03-29T00:39:21.859Z,11.00
2023-03-29T00:41:50.686Z,11.18
2023-03-29T00:44:18.164Z,11.40
2023-03-29T00:46:44.692Z,11.48
2023-03-29T00:49:11.236Z,11.59
2023-03-29T00:51:37.631Z,11.47
2023-03-29T00:54:10.196Z,11.29
2023-03-29T00:56:36.671Z,11.15
2023-03-29T00:59:03.065Z,11.19
2023-03-29T01:01:29.479Z,11.24
2023-03-29T01:03:55.943Z,11.46
2023-03-29T01:06:22.356Z,11.56
2023-03-29T01:08:48.780Z,11.59
2023-03-29T01:11:15.195Z,11.58
2023-03-29T01:13:41.670Z,11.59
2023-03-29T01:16:08.112Z,11.67
2023-03-29T01:18:34.503Z,11.70
2023-03-29T01:21:01.088Z,11.74
2023-03-29T01:23:27.607Z,11.77
2023-03-29T01:25:54.008Z,11.67
2023-03-29T01:28:20.456Z,11.63
2023-03-29T01:30:46.869Z,11.70
2023-03-29T01:33:13.252Z,11.75
2023-03-29T01:35:39.689Z,11.76
2023-03-29T01:38:08.540Z,11.81
2023-03-29T01:40:34.945Z,11.77
2023-03-29T01:43:01.367Z,11.73
2023-03-29T01:45:27.781Z,11.67
2023-03-29T01:47:54.342Z,11.63
2023-03-29T01:50:20.702Z,11.59
2023-03-29T01:52:47.172Z,11.58
2023-03-29T01:55:13.574Z,11.30
2023-03-29T01:57:40.005Z,11.43
2023-03-29T02:00:06.418Z,11.57
2023-03-29T02:02:32.944Z,11.48
2023-03-29T02:04:59.435Z,11.24
2023-03-29T02:07:25.860Z,11.21
2023-03-29T02:09:52.276Z,11.52
2023-03-29T02:12:18.723Z,11.51
2023-03-29T02:14:45.135Z,11.34
2023-03-29T02:17:11.599Z,11.49
2023-03-29T02:19:38.118Z,11.35
2023-03-29T02:22:06.608Z,11.37
2023-03-29T02:24:33.043Z,10.94
2023-03-29T02:26:59.420Z,11.25
2023-03-29T02:29:25.786Z,11.22
2023-03-29T02:31:52.185Z,11.43
2023-03-29T02:34:18.568Z,11.57
2023-03-29T02:36:45.010Z,11.40
2023-03-29T02:39:11.426Z,11.39
2023-03-29T02:41:37.834Z,11.21
2023-03-29T02:44:04.243Z,11.24
2023-03-29T02:46:30.765Z,11.16
2023-03-29T02:48:57.153Z,11.47
2023-03-29T02:51:23.555Z,11.61
2023-03-29T02:53:50.050Z,11.70
2023-03-29T02:56:20.710Z,11.74
2023-03-29T02:58:47.975Z,11.72
2023-03-29T03:01:14.442Z,11.65
2023-03-29T03:03:40.954Z,11.74
2023-03-29T03:06:07.508Z,11.64
2023-03-29T03:08:34.135Z,11.63
2023-03-29T03:11:00.824Z,11.72
2023-03-29T03:13:27.531Z,11.75
2023-03-29T03:15:53.930Z,11.72
2023-03-29T03:18:20.413Z,11.75
2023-03-29T03:20:46.823Z,11.70
2023-03-29T03:23:13.225Z,11.74
2023-03-29T03:25:39.644Z,11.78
2023-03-29T03:28:06.035Z,11.81
2023-03-29T03:30:32.516Z,11.84
2023-03-29T03:32:59.020Z,11.88
2023-03-29T03:35:26.593Z,11.91
2023-03-29T03:37:52.965Z,11.82
2023-03-29T03:40:19.381Z,11.80
2023-03-29T03:42:45.765Z,11.73
2023-03-29T03:45:12.270Z,11.69
2023-03-29T03:47:38.745Z,11.76
2023-03-29T03:50:05.250Z,11.75
2023-03-29T03:52:31.592Z,11.73
2023-03-29T03:54:57.970Z,11.77
2023-03-29T03:57:24.373Z,11.71
2023-03-29T03:59:50.799Z,11.72
2023-03-29T04:02:17.197Z,11.65
2023-03-29T04:04:43.681Z,11.58
2023-03-29T04:07:10.040Z,11.59
2023-03-29T04:09:36.372Z,11.60
2023-03-29T04:12:02.696Z,11.62
2023-03-29T04:14:29.045Z,11.50
2023-03-29T04:16:55.437Z,11.61
2023-03-29T04:19:21.983Z,11.60
2023-03-29T04:21:48.454Z,11.60
2023-03-29T04:24:14.844Z,11.71
2023-03-29T04:26:41.180Z,11.72
2023-03-29T04:29:07.559Z,11.71
2023-03-29T04:31:33.952Z,11.60
2023-03-29T04:34:02.796Z,11.68
2023-03-29T04:36:29.159Z,11.15
2023-03-29T04:38:55.500Z,11.27
2023-03-29T04:41:21.968Z,11.45
2023-03-29T04:43:48.397Z,11.45
2023-03-29T04:46:14.876Z,11.47
2023-03-29T04:48:41.337Z,11.50
2023-03-29T04:51:07.766Z,11.61
2023-03-29T04:53:34.136Z,11.44
2023-03-29T04:56:00.522Z,11.26
2023-03-29T04:58:30.731Z,11.17
2023-03-29T05:00:58.880Z,11.36
2023-03-29T05:03:25.261Z,11.35
2023-03-29T05:05:51.646Z,11.31
2023-03-29T05:08:20.787Z,11.37
2023-03-29T05:10:47.170Z,11.50
2023-03-29T05:13:13.612Z,11.45
2023-03-29T05:15:41.281Z,11.47
2023-03-29T05:18:07.825Z,11.56
2023-03-29T05:20:34.316Z,11.67
2023-03-29T05:23:00.777Z,11.64
2023-03-29T05:25:27.141Z,11.67
2023-03-29T05:27:53.515Z,11.70
2023-03-29T05:30:19.948Z,11.37
2023-03-29T05:32:46.695Z,10.87
2023-03-29T05:35:13.126Z,10.99
2023-03-29T05:37:39.502Z,11.12
2023-03-29T05:40:06.449Z,11.17
2023-03-29T05:42:32.886Z,11.15
2023-03-29T05:44:59.279Z,11.03
2023-03-29T05:47:25.780Z,11.16
2023-03-29T05:49:52.301Z,11.14
2023-03-29T05:52:18.652Z,11.13
2023-03-29T05:54:45.063Z,10.88
2023-03-29T05:57:11.551Z,11.10
2023-03-29T05:59:38.003Z,10.93
2023-03-29T06:02:04.367Z,10.84
2023-03-29T06:04:31.067Z,10.84
2023-03-29T06:06:57.490Z,10.85
2023-03-29T06:09:23.811Z,11.10
2023-03-29T06:11:50.142Z,11.03
2023-03-29T06:14:16.489Z,11.19
2023-03-29T06:16:43.040Z,11.34
2023-03-29T06:19:09.371Z,11.40
2023-03-29T06:21:35.714Z,11.42
2023-03-29T06:24:02.044Z,11.30
2023-03-29T06:26:28.474Z,11.45
2023-03-29T06:28:54.801Z,11.37
2023-03-29T06:31:21.296Z,11.46
2023-03-29T06:33:47.785Z,11.50
2023-03-29T06:36:14.206Z,11.57
2023-03-29T06:38:40.624Z,11.60
2023-03-29T06:41:07.019Z,11.62
2023-03-29T06:43:33.551Z,11.67
2023-03-29T06:46:00.029Z,11.59
2023-03-29T06:48:26.769Z,11.66
2023-03-29T06:51:03.277Z,11.69
2023-03-29T06:53:29.780Z,11.65
2023-03-29T06:55:57.476Z,11.66
2023-03-29T06:58:24.022Z,11.73
2023-03-29T07:00:50.514Z,11.78
2023-03-29T07:03:17.301Z,11.82
2023-03-29T07:05:45.518Z,11.79
2023-03-29T07:08:11.876Z,11.68
2023-03-29T07:10:38.393Z,11.81
2023-03-29T07:13:04.956Z,11.84
2023-03-29T07:15:31.411Z,11.90
2023-03-29T07:17:58.071Z,11.99
2023-03-29T07:20:24.529Z,12.10
2023-03-29T07:22:51.577Z,12.10
2023-03-29T07:25:18.372Z,11.98
2023-03-29T07:27:44.828Z,12.06
2023-03-29T07:30:11.409Z,12.06
2023-03-29T07:32:37.988Z,12.07
2023-03-29T07:35:04.526Z,12.02
2023-03-29T07:37:30.960Z,12.01
2023-03-29T07:39:57.436Z,11.95
2023-03-29T07:42:23.796Z,12.00
2023-03-29T07:44:50.220Z,12.06
2023-03-29T07:47:16.632Z,12.08
2023-03-29T07:49:42.974Z,12.11
2023-03-29T07:52:09.348Z,12.13
2023-03-29T07:54:35.779Z,12.11
2023-03-29T07:57:03.991Z,12.14
2023-03-29T07:59:38.732Z,12.20
2023-03-29T08:02:05.559Z,12.23
2023-03-29T08:04:32.099Z,12.34
2023-03-29T08:06:58.531Z,12.12
2023-03-29T08:09:24.860Z,12.07
2023-03-29T08:11:51.234Z,12.22
2023-03-29T08:14:17.619Z,12.35
2023-03-29T08:16:44.088Z,12.35
2023-03-29T08:19:10.510Z,12.36
2023-03-29T08:21:36.933Z,12.42
2023-03-29T08:24:03.381Z,12.47
2023-03-29T08:26:29.812Z,12.48
2023-03-29T08:28:56.183Z,12.44
2023-03-29T08:31:22.681Z,12.53
2023-03-29T08:33:49.131Z,12.60
2023-03-29T08:36:17.996Z,12.65
2023-03-29T08:38:44.416Z,12.69
2023-03-29T08:41:10.784Z,12.73
2023-03-29T08:43:37.189Z,12.70
2023-03-29T08:46:03.671Z,12.66
2023-03-29T08:48:30.077Z,12.67
2023-03-29T08:50:56.878Z,12.67
2023-03-29T08:53:23.273Z,12.60
2023-03-29T08:55:49.701Z,12.65
2023-03-29T08:58:16.173Z,12.71
2023-03-29T09:03:23.858Z,12.65
2023-03-29T09:05:50.321Z,12.68
2023-03-29T09:08:16.782Z,12.74
2023-03-29T09:10:43.256Z,12.82
2023-03-29T09:13:09.824Z,12.89
2023-03-29T09:15:36.301Z,12.86
2023-03-29T09:18:02.860Z,12.70
2023-03-29T09:20:29.258Z,12.77
2023-03-29T09:22:55.705Z,12.72
2023-03-29T09:25:22.138Z,12.84
2023-03-29T09:27:48.608Z,12.97
2023-03-29T09:30:15.246Z,13.05
2023-03-29T09:32:41.689Z,13.10
2023-03-29T09:35:08.155Z,13.04
2023-03-29T09:37:34.584Z,13.24
2023-03-29T09:40:02.076Z,13.32
2023-03-29T09:42:30.261Z,13.28
2023-03-29T09:44:58.010Z,13.33
2023-03-29T09:47:24.440Z,13.36
2023-03-29T09:49:50.866Z,13.37
2023-03-29T09:52:17.331Z,13.42
2023-03-29T09:54:43.844Z,13.41
2023-03-29T09:57:10.286Z,13.46
2023-03-29T09:59:36.802Z,13.53
2023-03-29T10:02:03.262Z,13.44
2023-03-29T10:04:35.334Z,13.54
2023-03-29T10:07:01.753Z,13.57
2023-03-29T10:09:28.144Z,13.66
2023-03-29T10:11:54.502Z,13.65
2023-03-29T10:14:21.643Z,13.62
2023-03-29T10:16:48.120Z,13.80
2023-03-29T10:19:14.622Z,13.89
2023-03-29T10:21:41.058Z,13.93
2023-03-29T10:24:07.478Z,13.86
2023-03-29T10:26:34.953Z,13.83
2023-03-29T10:29:01.497Z,13.79
2023-03-29T10:31:27.924Z,13.61
2023-03-29T10:33:54.358Z,13.77
2023-03-29T10:36:20.793Z,13.77
2023-03-29T10:38:47.172Z,13.80
2023-03-29T10:41:13.640Z,13.94
2023-03-29T10:43:40.008Z,13.99
2023-03-29T10:46:06.462Z,14.01
2023-03-29T10:48:32.915Z,13.83
2023-03-29T10:50:59.459Z,13.79
2023-03-29T10:53:25.997Z,13.82
2023-03-29T10:55:52.364Z,13.75
2023-03-29T10:58:18.793Z,13.78
2023-03-29T11:00:45.188Z,13.82
2023-03-29T11:03:13.111Z,13.83
2023-03-29T11:05:41.688Z,13.77
2023-03-29T11:08:08.100Z,13.75
2023-03-29T11:10:34.753Z,13.77
2023-03-29T11:13:01.189Z,13.67
2023-03-29T11:15:27.616Z,13.64
2023-03-29T11:17:54.108Z,13.48
2023-03-29T11:20:20.528Z,13.46
2023-03-29T11:22:46.900Z,13.55
2023-03-29T11:25:13.239Z,13.59
2023-03-29T11:27:39.640Z,13.37
2023-03-29T11:30:06.015Z,13.20
2023-03-29T11:32:32.414Z,13.30
2023-03-29T11:37:49.666Z,13.26
2023-03-29T11:40:17.347Z,13.16
2023-03-29T11:42:43.761Z,13.27
2023-03-29T11:48:02.706Z,13.20
2023-03-29T11:50:37.933Z,13.43
2023-03-29T11:53:04.375Z,13.47
2023-03-29T11:55:30.955Z,13.52
2023-03-29T11:57:57.464Z,13.49
2023-03-29T12:00:23.847Z,13.66
2023-03-29T12:02:50.359Z,13.79
2023-03-29T12:05:16.845Z,13.71
2023-03-29T12:07:43.473Z,13.79
2023-03-29T12:10:09.920Z,13.77
2023-03-29T12:12:36.805Z,13.93
2023-03-29T12:15:03.279Z,13.82
2023-03-29T12:17:29.774Z,13.62
2023-03-29T12:19:56.213Z,13.72
2023-03-29T12:22:22.675Z,13.81
2023-03-29T12:24:49.145Z,13.92
2023-03-29T12:27:15.574Z,13.92
2023-03-29T12:29:42.034Z,13.20
2023-03-29T12:32:08.486Z,13.54
2023-03-29T12:34:35.058Z,13.70
2023-03-29T12:37:02.641Z,13.84
2023-03-29T12:39:29.114Z,13.74
2023-03-29T12:41:55.615Z,13.72
2023-03-29T12:44:22.133Z,13.81
2023-03-29T12:46:48.756Z,13.88
2023-03-29T12:49:15.412Z,13.99
2023-03-29T12:51:41.849Z,14.07
2023-03-29T12:54:08.273Z,14.22
2023-03-29T12:56:34.672Z,14.39
2023-03-29T12:59:01.148Z,14.56
2023-03-29T13:01:27.688Z,14.70
2023-03-29T13:03:58.174Z,14.79
2023-03-29T13:06:24.953Z,14.83
2023-03-29T13:08:51.356Z,14.83
2023-03-29T13:11:17.943Z,14.88
2023-03-29T13:13:48.239Z,14.78
2023-03-29T13:16:14.809Z,14.93
2023-03-29T13:18:41.283Z,14.93
2023-03-29T13:21:07.763Z,14.92
2023-03-29T13:23:34.238Z,14.96
2023-03-29T13:26:00.750Z,14.97
2023-03-29T13:28:27.364Z,14.77
2023-03-29T13:30:54.054Z,14.68
2023-03-29T13:33:20.505Z,14.67
2023-03-29T13:35:47.027Z,14.58
2023-03-29T13:38:13.555Z,14.75
2023-03-29T13:40:39.902Z,14.97
2023-03-29T13:43:06.537Z,15.01
2023-03-29T13:48:23.386Z,14.95
2023-03-29T13:50:49.903Z,15.08
2023-03-29T13:53:16.293Z,15.20
2023-03-29T13:55:42.778Z,15.18
2023-03-29T13:58:09.186Z,15.08
2023-03-29T14:03:21.807Z,15.10
2023-03-29T14:05:48.279Z,15.01
2023-03-29T14:08:22.632Z,15.30
2023-03-29T14:10:48.997Z,15.27
2023-03-29T14:13:15.386Z,15.38
2023-03-29T14:15:41.865Z,15.48
2023-03-29T14:18:08.292Z,15.50
2023-03-29T14:20:34.835Z,15.61
2023-03-29T14:23:01.426Z,15.67
2023-03-29T14:25:27.944Z,15.77
2023-03-29T14:27:54.724Z,15.83
2023-03-29T14:30:27.291Z,15.89
2023-03-29T14:32:53.786Z,15.92
2023-03-29T14:35:20.285Z,15.96
2023-03-29T14:37:46.712Z,16.13
2023-03-29T14:40:13.117Z,16.30
2023-03-29T14:42:39.585Z,16.36
2023-03-29T14:45:05.965Z,16.45
2023-03-29T14:47:32.413Z,16.54
2023-03-29T14:49:58.880Z,16.60
2023-03-29T14:52:25.678Z,16.50
2023-03-29T14:54:54.228Z,16.55
2023-03-29T14:57:20.779Z,16.53
2023-03-29T14:59:47.554Z,16.56
2023-03-29T15:02:14.042Z,16.57
2023-03-29T15:04:40.521Z,16.55
2023-03-29T15:07:06.930Z,16.39
2023-03-29T15:09:33.385Z,16.41
2023-03-29T15:11:59.795Z,16.46
2023-03-29T15:14:26.235Z,16.33
2023-03-29T15:16:52.640Z,16.57
2023-03-29T15:19:19.113Z,16.60
2023-03-29T15:21:45.549Z,16.61
2023-03-29T15:24:12.096Z,16.68
2023-03-29T15:26:38.494Z,16.67
2023-03-29T15:29:04.976Z,16.79
2023-03-29T15:31:31.392Z,16.62
2023-03-29T15:33:57.845Z,16.77
2023-03-29T15:36:24.503Z,16.87
2023-03-29T15:38:51.017Z,16.94
2023-03-29T15:41:17.335Z,16.88
2023-03-29T15:43:44.737Z,16.79
2023-03-29T15:46:12.415Z,16.84
2023-03-29T15:48:38.896Z,16.52
2023-03-29T15:51:06.967Z,16.71
2023-03-29T15:53:33.591Z,16.81
2023-03-29T15:56:00.179Z,16.78
2023-03-29T15:58:26.696Z,17.01
2023-03-29T16:00:53.253Z,16.92
2023-03-29T16:03:19.802Z,17.02
2023-03-29T16:05:46.332Z,17.02
2023-03-29T16:08:12.766Z,16.97
2023-03-29T16:10:46.488Z,16.75
2023-03-29T16:13:12.957Z,16.96
2023-03-29T16:15:39.431Z,16.96
2023-03-29T16:18:05.835Z,16.98
2023-03-29T16:20:32.309Z,16.89
2023-03-29T16:22:58.743Z,16.80
2023-03-29T16:25:25.200Z,16.82
2023-03-29T16:27:51.672Z,16.33
2023-03-29T16:30:18.841Z,16.48
2023-03-29T16:32:45.212Z,16.60
2023-03-29T16:35:11.720Z,16.70
2023-03-29T16:37:38.181Z,16.49
2023-03-29T16:40:04.659Z,16.60
2023-03-29T16:42:31.110Z,16.46
2023-03-29T16:44:57.517Z,16.61
2023-03-29T16:47:23.980Z,16.57
2023-03-29T16:49:50.710Z,16.45
2023-03-29T16:55:15.316Z,16.31
2023-03-29T16:57:41.783Z,16.30
2023-03-29T17:00:08.252Z,16.30
2023-03-29T17:02:34.751Z,16.48
2023-03-29T17:05:01.178Z,16.62
2023-03-29T17:07:27.594Z,16.57
2023-03-29T17:09:54.087Z,16.54
2023-03-29T17:12:20.640Z,16.44
2023-03-29T17:14:47.058Z,16.52
2023-03-29T17:17:13.520Z,16.53
2023-03-29T17:19:40.031Z,16.45
2023-03-29T17:22:06.573Z,16.48
2023-03-29T17:24:33.019Z,16.22
2023-03-29T17:26:59.490Z,16.17
2023-03-29T17:29:25.930Z,16.30
2023-03-29T17:31:52.397Z,16.18
2023-03-29T17:34:18.962Z,16.43
2023-03-29T17:36:45.370Z,16.43
2023-03-29T17:39:19.409Z,16.45
2023-03-29T17:41:54.723Z,16.40
2023-03-29T17:44:21.181Z,16.33
2023-03-29T17:46:47.648Z,16.42
2023-03-29T17:49:14.136Z,16.49
2023-03-29T17:51:40.489Z,16.55
2023-03-29T17:54:06.901Z,16.48
2023-03-29T17:56:33.313Z,16.47
2023-03-29T17:58:59.728Z,16.53
2023-03-29T18:01:26.343Z,16.57
2023-03-29T18:03:53.350Z,16.48
2023-03-29T18:06:22.703Z,16.42
2023-03-29T18:08:49.206Z,16.36
2023-03-29T18:11:15.635Z,16.34
2023-03-29T18:13:42.125Z,16.31
2023-03-29T18:16:08.715Z,16.22
2023-03-29T18:18:35.585Z,16.35
2023-03-29T18:21:03.083Z,16.28
2023-03-29T18:23:29.473Z,16.25
2023-03-29T18:25:55.910Z,16.24
2023-03-29T18:28:22.353Z,16.22
2023-03-29T18:30:48.779Z,16.21
2023-03-29T18:33:15.228Z,16.20
2023-03-29T18:35:41.718Z,16.10
2023-03-29T18:38:08.186Z,16.13
2023-03-29T18:40:34.571Z,16.09
2023-03-29T18:43:01.170Z,16.09
2023-03-29T18:45:27.849Z,16.10
2023-03-29T18:47:54.483Z,16.11
2023-03-29T18:50:21.029Z,16.12
2023-03-29T18:52:54.871Z,16.12
2023-03-29T18:55:21.349Z,16.10
2023-03-29T18:57:47.799Z,16.07
2023-03-29T19:00:14.272Z,16.09
2023-03-29T19:02:40.906Z,16.17
2023-03-29T19:05:12.378Z,16.16
2023-03-29T19:07:38.885Z,16.13
2023-03-29T19:10:05.352Z,16.09
2023-03-29T19:12:31.822Z,16.02
2023-03-29T19:14:58.262Z,16.10
2023-03-29T19:17:24.709Z,16.19
2023-03-29T19:19:51.264Z,16.18
2023-03-29T19:22:18.906Z,16.23
2023-03-29T19:24:45.384Z,16.15
2023-03-29T19:27:12.730Z,16.13
2023-03-29T19:29:39.234Z,16.10
2023-03-29T19:32:05.609Z,16.06
2023-03-29T19:34:33.897Z,16.00
2023-03-29T19:37:00.566Z,16.12
2023-03-29T19:39:26.951Z,16.11
2023-03-29T19:41:53.479Z,16.10
2023-03-29T19:44:19.996Z,16.20
2023-03-29T19:49:38.395Z,16.17
2023-03-29T19:52:04.859Z,16.09
2023-03-29T19:54:31.265Z,15.97
2023-03-29T19:56:59.952Z,15.89
2023-03-29T19:59:26.440Z,15.99
2023-03-29T20:01:53.012Z,15.83
2023-03-29T20:04:19.532Z,15.66
2023-03-29T20:06:48.606Z,15.80
2023-03-29T20:09:15.034Z,15.68
2023-03-29T20:11:41.522Z,15.68
2023-03-29T20:14:07.935Z,15.67
2023-03-29T20:16:41.943Z,15.62
2023-03-29T20:19:08.395Z,15.48
2023-03-29T20:21:37.087Z,15.67
2023-03-29T20:24:17.640Z,15.88
2023-03-29T20:26:44.097Z,16.00
2023-03-29T20:29:10.508Z,16.01
2023-03-29T20:31:36.992Z,16.06
2023-03-29T20:34:03.474Z,16.03
2023-03-29T20:36:32.335Z,16.04
2023-03-29T20:39:01.475Z,15.98
2023-03-29T20:41:29.006Z,16.02
2023-03-29T20:43:55.418Z,16.03
2023-03-29T20:46:21.880Z,15.95
2023-03-29T20:48:48.353Z,15.99
2023-03-29T20:51:14.868Z,15.94
2023-03-29T20:53:41.303Z,15.93
2023-03-29T20:56:07.807Z,15.96
2023-03-29T20:58:34.228Z,15.87
2023-03-29T21:01:00.797Z,15.91
2023-03-29T21:03:27.494Z,15.84
2023-03-29T21:05:54.006Z,15.87
2023-03-29T21:08:20.433Z,15.91
2023-03-29T21:10:48.186Z,15.90
2023-03-29T21:13:14.574Z,15.95
2023-03-29T21:15:41.911Z,15.94
2023-03-29T21:18:11.114Z,15.92
2023-03-29T21:20:37.567Z,15.99
2023-03-29T21:23:04.034Z,15.97
2023-03-29T21:25:30.462Z,15.95
2023-03-29T21:27:56.879Z,16.00
2023-03-29T21:30:23.220Z,15.97
2023-03-29T21:32:49.665Z,15.99
2023-03-29T21:35:16.218Z,16.02
2023-03-29T21:37:42.694Z,16.06
2023-03-29T21:40:09.054Z,16.07
2023-03-29T21:42:36.480Z,16.05
2023-03-29T21:45:02.980Z,16.08
2023-03-29T21:47:29.399Z,15.95
2023-03-29T21:49:55.845Z,15.95
2023-03-29T21:52:22.212Z,16.10
2023-03-29T21:54:48.582Z,16.08
2023-03-29T21:57:15.300Z,15.94
2023-03-29T21:59:41.790Z,15.82
2023-03-29T22:02:08.261Z,15.84
2023-03-29T22:04:37.244Z,15.80
2023-03-29T22:07:04.142Z,15.86
2023-03-29T22:09:30.532Z,15.89
2023-03-29T22:11:56.935Z,15.91
2023-03-29T22:14:23.336Z,15.95
2023-03-29T22:16:49.809Z,16.02
2023-03-29T22:19:16.234Z,16.01
2023-03-29T22:21:42.615Z,16.02
2023-03-29T22:24:08.945Z,16.12
2023-03-29T22:26:35.428Z,16.11
2023-03-29T22:29:01.846Z,16.03
2023-03-29T22:31:28.542Z,15.98
2023-03-29T22:33:54.962Z,16.09
2023-03-29T22:36:21.351Z,16.02
2023-03-29T22:38:49.103Z,16.00
2023-03-29T22:41:15.495Z,15.94
2023-03-29T22:43:41.928Z,15.87
2023-03-29T22:46:11.212Z,15.65
2023-03-29T22:48:37.623Z,15.82
2023-03-29T22:51:04.272Z,15.83
2023-03-29T22:53:30.725Z,15.79
2023-03-29T22:55:57.123Z,15.77
2023-03-29T22:58:23.512Z,15.80
2023-03-29T23:00:50.003Z,15.81
2023-03-29T23:03:18.646Z,15.86
2023-03-29T23:05:45.078Z,15.94
2023-03-29T23:08:11.577Z,15.91
2023-03-29T23:10:40.175Z,15.81
2023-03-29T23:13:06.610Z,15.79
2023-03-29T23:15:32.992Z,15.83
2023-03-29T23:18:02.424Z,15.86
2023-03-29T23:20:28.890Z,15.81
2023-03-29T23:22:55.282Z,15.70
2023-03-29T23:25:21.710Z,15.79
2023-03-29T23:27:48.164Z,15.81
2023-03-29T23:30:14.578Z,15.88
2023-03-29T23:32:40.994Z,15.92
2023-03-29T23:35:07.379Z,15.93
2023-03-29T23:37:33.749Z,15.95
2023-03-29T23:40:00.193Z,15.98
2023-03-29T23:42:27.230Z,16.01
2023-03-29T23:44:53.592Z,15.94
2023-03-29T23:47:20.071Z,15.93
2023-03-29T23:49:46.467Z,15.92
2023-03-29T23:52:12.806Z,15.98
2023-03-29T23:54:40.699Z,15.86
2023-03-29T23:57:07.257Z,15.83
2023-03-29T23:59:38.151Z,15.69
